KGLW/GLW METAR and TAF weather

Enter ICAO airport designator
Station Type Date Time Source
KGLW METAR 2021/01/27 13:55 UTC NOAA

KGLW 271355Z AUTO 05006KT 10SM CLR 00/M02 A3012 RMK AO2 T00001019


Station Type Date Time Source
KGLW Decoded METAR 2021/01/27 13:55 UTC NOAA

Glasgow, Glasgow Municipal Airport, KY, United States (KGLW) 37-01-54N 085-57-13W
Jan 27, 2021 - 08:55 AM EST / 2021.01.27 1355 UTC
Wind: from the NE (050 degrees) at 7 MPH (6 KT):0
Visibility: 10 mile(s):0
Sky conditions: clear
Temperature: 32.0 F (0.0 C)
Windchill: 24 F (-4 C):1
Dew Point: 28.6 F (-1.9 C)
Relative Humidity: 87%
Pressure (altimeter): 30.12 in. Hg (1019 hPa)
ob: KGLW 271355Z AUTO 05006KT 10SM CLR 00/M02 A3012 RMK AO2 T00001019
cycle: 14

Station Type Date Time Source
KGLW TAF UTC NOAA

Error!

Example: see airport list